Terminal Aerodrome Forecast
Issued by NWS Medford, OR

Home | Current Version | Previous Version | Text Only | Print | Product List | Glossary On
Versions: 1 2 3 4 5 6 7 8 9 10 11 12 13 14 15 16 17 18 19 20 21 22 23
000
FTUS46 KMFR 221145
TAFMFR
TAF
KMFR 221145Z 2212/2312 VRB04KT P6SM -SHRA FEW015 SCT035 BKN060
      TEMPO 2212/2216 5SM -SHRA BR SCT005 BKN015 BKN040
     FM221800 30010G15KT P6SM -SHRA SCT030 BKN035 OVC050
     FM230300 VRB02KT P6SM SCT030 BKN040=

USA.gov is the U.S. government's official web portal to all federal, state and local government web resources and services.